Terminal Aerodrome Forecast
Issued by NWS

Home | Current Version | Previous Version | Text Only | Print | Product List | Glossary On
Versions: 1 2 3 4 5 6 7 8 9 10 11 12 13 14 15 16
604
FTUS46 KSEW 162107 AAA
TAFPAE
TAF AMD
KPAE 162107Z 1621/1718 16012KT P6SM FEW025 BKN110 BKN250
     FM162300 19012KT P6SM SCT030 BKN100 OVC150
     FM170900 20015G25KT P6SM VCSH BKN030 OVC045
     FM171200 20015G25KT P6SM -RA BKN022 OVC030
     FM171500 23020G30KT P6SM -RA OVC022=

USA.gov is the U.S. government's official web portal to all federal, state and local government web resources and services.